Monday, January 21, 2019, 5:06 PM EST
Back to Local

KRDG, Reading Regional Airport

Location: Reading, PA, United States Lat: 40.367
Local Time: 5:06 PM EST (22:06 GMT) Lon: -75.967
Time Zone: US/Eastern Elev: 344 ft

Show me the last for .
Show Coded

Time T Td Feel RH Dir Speed Gust Alt SLP Vis Weather Sky Remarks
2019-01-21 16:54 16 -7 -6 34 320° 25 39 30.29 30.33 10 CLR Peak wind: 39 mph (34 kts) from 330° at 52 min
2019-01-21 15:54 17 -5 -5 36 310° 21 38 30.27 30.30 10 CLR Peak wind: 37 mph (33 kts) from 330° at 46 min
2019-01-21 14:54 17 -4 -4 38 300° 25 36 30.24 30.28 10 CLR Peak wind: 36 mph (32 kts) from 310° at 39 min
2019-01-21 13:54 16 -5 -5 38 310° 18 32 30.24 30.27 10 FEW036 Peak wind: 37 mph (33 kts) from 330° at 07 min
2019-01-21 12:54 15 -6 -7 37 310° 29 38 30.22 30.25 10 FEW036 Peak wind: 40 mph (35 kts) from 300° at 20 min
6-hr Min Temp (1pm): 6.1°F
6-hr Max Temp (1pm): 15.1°F
2019-01-21 11:54 12 -7 -11 41 290° 22 36 30.22 30.25 10 CLR Peak wind: 39 mph (34 kts) from 320° at 56 min
2019-01-21 10:54 11 -7 -13 43 300° 29 38 30.21 30.25 10 CLR Peak wind: 40 mph (35 kts) from 310° at 14 min
2019-01-21 09:54 10 -8 -14 42 290° 28 38 30.17 30.21 10 CLR Peak wind: 37 mph (33 kts) from 300° at 54 min
2019-01-21 08:54 8 -8 -16 46 300° 23 35 30.14 30.18 10 CLR Peak wind: 39 mph (34 kts) from 290° at 31 min
2019-01-21 07:54 7 -6 -16 54 300° 23 29 30.11 30.14 10 CLR Peak wind: 31 mph (27 kts) from 300° at 17 min
2019-01-21 06:54 7 -5 -16 56 290° 17 28 30.08 30.11 10 CLR Peak wind: 35 mph (31 kts) from 290° at 12 min
24-hr Precip Total (7am): 0.20"
6-hr Min Temp (7am): 7.0°F
6-hr Max Temp (7am): 10.9°F
2019-01-21 05:54 7 -4 -17 59 300° 20 32 30.04 30.07 10 SCT036 Peak wind: 33 mph (29 kts) from 310° at 38 min
2019-01-21 04:54 8 -4 -14 56 310° 16 26 30.03 30.06 10 CLR Peak wind: 35 mph (31 kts) from 320° at 35 min
2019-01-21 03:54 8 -4 -16 56 300° 17 35 30.00 30.03 10 CLR Peak wind: 34 mph (30 kts) from 310° at 46 min
2019-01-21 02:54 9 -5 -15 51 300° 23 33 29.99 30.02 10 CLR Peak wind: 34 mph (30 kts) from 300° at 36 min
2019-01-21 01:54 10 -3 -13 54 300° 21 32 29.97 30.01 10 CLR Peak wind: 36 mph (32 kts) from 290° at 26 min
2019-01-21 00:54 11 -2 -11 55 290° 22 31 29.94 29.97 10 CLR Peak wind: 37 mph (33 kts) from 310° at 18 min
6-hr Min Temp (1am): 10.9°F
6-hr Max Temp (1am): 21.9°F
2019-01-20 23:54 13 1 -11 58 310° 26 39 29.90 29.93 10 CLR Peak wind: 39 mph (34 kts) from 300° at 47 min
24-hr Min Temp (12am): 12.9°F
24-hr Max Temp (12am): 39.0°F
2019-01-20 22:54 14 2 -8 57 290° 28 36 29.88 29.90 10 FEW040 Peak wind: 35 mph (31 kts) from 300° at 53 min
2019-01-20 21:54 15 5 -6 63 320° 24 32 29.85 29.87 10 FEW040 Peak wind: 39 mph (34 kts) from 320° at 04 min
2019-01-20 20:54 17 5 -6 58 310° 26 44 29.82 29.85 10 BKN043 Peak wind: 43 mph (38 kts) from 310° at 51 min
2019-01-20 19:54 20 8 0 59 300° 26 33 29.79 29.81 10 OVC043 Peak wind: 39 mph (34 kts) from 310° at 34 min
2019-01-20 18:54 22 12 4 65 320° 20 29 29.74 29.77 10 BKN037 Peak wind: 32 mph (28 kts) from 320° at 44 min
6-hr Min Temp (7pm): 21.9°F
6-hr Max Temp (7pm): 28.9°F
2019-01-20 17:54 23 13 10 64 320° 16 - 29.71 29.73 10 OVC037 Peak wind: 39 mph (34 kts) from 340° at 57 min

Support USWX by starting your Amazon purchase here.